createdAt,value
2023-01-28T00:00:05.781Z,21.17
2023-01-28T00:05:14.651Z,20.03
2023-01-28T00:10:22.750Z,20.15
2023-01-28T00:15:31.387Z,19.83
2023-01-28T00:20:40.458Z,20.87
2023-01-28T00:25:49.250Z,18.41
2023-01-28T00:30:57.915Z,19.86
2023-01-28T00:36:06.366Z,20.34
2023-01-28T00:41:15.335Z,20.09
2023-01-28T00:46:23.990Z,19.68
2023-01-28T00:51:33.229Z,18.97
2023-01-28T00:56:42.412Z,20.25
2023-01-28T01:01:51.568Z,20.28
2023-01-28T01:07:00.219Z,21.50
2023-01-28T01:12:09.304Z,20.66
2023-01-28T01:17:17.559Z,20.35
2023-01-28T01:22:26.286Z,21.28
2023-01-28T01:27:34.510Z,21.30
2023-01-28T01:32:43.004Z,19.93
2023-01-28T01:37:52.267Z,21.56
2023-01-28T01:43:01.188Z,21.96
2023-01-28T01:48:09.811Z,22.18
2023-01-28T01:53:18.798Z,21.77
2023-01-28T01:58:27.207Z,23.09
2023-01-28T02:03:36.504Z,20.68
2023-01-28T02:08:44.916Z,21.25
2023-01-28T02:13:56.933Z,22.19
2023-01-28T02:19:03.058Z,21.73
2023-01-28T02:24:11.840Z,22.55
2023-01-28T02:29:20.824Z,22.61
2023-01-28T02:34:30.151Z,23.58
2023-01-28T02:39:38.827Z,20.36
2023-01-28T02:44:47.765Z,23.59
2023-01-28T02:49:57.094Z,23.88
2023-01-28T02:55:06.150Z,22.26
2023-01-28T03:00:14.582Z,20.83
2023-01-28T03:05:23.435Z,19.74
2023-01-28T03:10:32.144Z,19.74
2023-01-28T03:15:41.601Z,19.85
2023-01-28T03:20:50.234Z,20.40
2023-01-28T03:25:59.204Z,20.47
2023-01-28T03:31:08.668Z,19.65
2023-01-28T03:36:17.685Z,19.76
2023-01-28T03:41:26.215Z,19.83
2023-01-28T03:46:35.551Z,19.99
2023-01-28T03:51:44.676Z,22.34
2023-01-28T03:56:53.706Z,20.88
2023-01-28T04:02:03.137Z,23.96
2023-01-28T04:07:11.851Z,19.50
2023-01-28T04:12:20.880Z,20.96
2023-01-28T04:17:30.054Z,22.03
2023-01-28T04:22:38.454Z,21.36
2023-01-28T04:27:48.167Z,21.67
2023-01-28T04:32:56.810Z,22.58
2023-01-28T04:38:05.660Z,21.57
2023-01-28T04:43:14.274Z,19.76
2023-01-28T04:48:23.219Z,22.54
2023-01-28T04:53:32.095Z,25.26
2023-01-28T04:58:41.356Z,28.78
2023-01-28T05:03:50.168Z,24.72
2023-01-28T05:08:58.744Z,22.98
2023-01-28T05:14:07.511Z,22.91
2023-01-28T05:19:16.510Z,21.91
2023-01-28T05:24:25.057Z,24.15
2023-01-28T05:29:34.176Z,26.67
2023-01-28T05:34:42.965Z,30.37
2023-01-28T05:39:51.990Z,27.82
2023-01-28T05:45:00.526Z,26.30
2023-01-28T05:50:09.758Z,24.64
2023-01-28T05:55:20.719Z,26.67
2023-01-28T06:00:27.065Z,27.60
2023-01-28T06:05:36.289Z,27.85
2023-01-28T06:10:45.354Z,26.57
2023-01-28T06:15:57.587Z,27.53
2023-01-28T06:20:56.896Z,25.24
2023-01-28T06:26:05.737Z,29.28
2023-01-28T06:31:14.680Z,31.34
2023-01-28T06:36:23.429Z,26.80
2023-01-28T06:41:32.840Z,29.04
2023-01-28T06:46:41.756Z,29.90
2023-01-28T06:51:51.285Z,37.82
2023-01-28T06:56:59.700Z,36.70
2023-01-28T07:02:09.311Z,40.78
2023-01-28T07:07:18.371Z,39.45
2023-01-28T07:12:27.700Z,50.34
2023-01-28T07:17:36.654Z,47.22
2023-01-28T07:22:45.515Z,41.72
2023-01-28T07:27:53.891Z,45.70
2023-01-28T07:33:03.532Z,79.84
2023-01-28T07:38:12.369Z,39.14
2023-01-28T07:43:21.525Z,37.93
2023-01-28T07:48:30.996Z,35.09
2023-01-28T07:53:39.984Z,37.02
2023-01-28T07:58:48.767Z,34.30
2023-01-28T08:03:57.677Z,46.72
2023-01-28T08:09:06.447Z,40.81
2023-01-28T08:14:15.741Z,31.32
2023-01-28T08:19:24.656Z,40.17
2023-01-28T08:24:33.748Z,65.18
2023-01-28T08:29:42.431Z,42.15
2023-01-28T08:34:51.315Z,32.67
2023-01-28T08:39:59.994Z,35.81
2023-01-28T08:45:09.356Z,54.18
2023-01-28T08:50:18.715Z,31.27
2023-01-28T08:55:27.634Z,22.32
2023-01-28T09:00:36.319Z,23.42
2023-01-28T09:05:44.980Z,23.11
2023-01-28T09:10:54.095Z,21.85
2023-01-28T09:16:03.822Z,28.17
2023-01-28T09:21:12.752Z,23.13
2023-01-28T09:26:21.894Z,27.86
2023-01-28T09:31:31.406Z,24.04
2023-01-28T09:36:41.005Z,22.66
2023-01-28T09:41:49.538Z,22.21
2023-01-28T09:46:59.077Z,21.00
2023-01-28T09:52:07.549Z,22.94
2023-01-28T09:57:16.851Z,22.14
2023-01-28T10:02:25.571Z,19.82
2023-01-28T10:07:34.712Z,20.13
2023-01-28T10:12:43.431Z,19.32
2023-01-28T10:18:03.871Z,59.40
2023-01-28T10:23:01.462Z,19.32
2023-01-28T10:28:10.540Z,18.80
2023-01-28T10:33:19.074Z,18.84
2023-01-28T10:38:27.859Z,19.91
2023-01-28T10:43:36.674Z,31.99
2023-01-28T10:48:45.535Z,22.49
2023-01-28T10:53:54.175Z,17.18
2023-01-28T10:59:03.227Z,18.70
2023-01-28T11:04:12.001Z,19.49
2023-01-28T11:09:21.208Z,20.90
2023-01-28T11:14:29.688Z,24.31
2023-01-28T11:19:39.118Z,23.65
2023-01-28T11:24:47.377Z,23.95
2023-01-28T11:29:56.325Z,25.75
2023-01-28T11:35:05.088Z,23.48
2023-01-28T11:40:14.525Z,20.32
2023-01-28T11:45:22.498Z,21.21
2023-01-28T11:50:31.681Z,23.55
2023-01-28T11:55:39.912Z,19.32
2023-01-28T12:00:49.095Z,20.21
2023-01-28T12:05:57.665Z,20.14
2023-01-28T12:11:06.642Z,20.42
2023-01-28T12:16:15.209Z,20.24
2023-01-28T12:21:24.035Z,21.61
2023-01-28T12:26:32.706Z,21.54
2023-01-28T12:31:41.844Z,21.24
2023-01-28T12:36:50.378Z,21.94
2023-01-28T12:41:59.496Z,21.66
2023-01-28T12:47:08.389Z,20.90
2023-01-28T12:52:17.804Z,26.06
2023-01-28T12:57:26.371Z,23.70
2023-01-28T13:02:36.133Z,27.32
2023-01-28T13:07:45.130Z,26.20
2023-01-28T13:12:54.514Z,25.84
2023-01-28T13:18:03.489Z,27.42
2023-01-28T13:23:12.928Z,26.35
2023-01-28T13:28:21.452Z,25.56
2023-01-28T13:33:30.605Z,26.78
2023-01-28T13:38:39.106Z,28.00
2023-01-28T13:43:47.831Z,25.58
2023-01-28T13:48:56.515Z,30.63
2023-01-28T13:54:05.964Z,30.02
2023-01-28T13:59:14.685Z,31.91
2023-01-28T14:04:23.923Z,31.90
2023-01-28T14:09:32.848Z,31.68
2023-01-28T14:14:42.113Z,31.03
2023-01-28T14:19:50.446Z,30.52
2023-01-28T14:24:59.824Z,32.15
2023-01-28T14:30:08.424Z,30.23
2023-01-28T14:35:17.480Z,29.89
2023-01-28T14:40:26.463Z,30.76
2023-01-28T14:45:35.622Z,29.36
2023-01-28T14:50:44.132Z,31.07
2023-01-28T14:55:52.987Z,29.91
2023-01-28T15:01:01.656Z,30.39
2023-01-28T15:06:10.984Z,27.37
2023-01-28T15:11:19.543Z,28.74
2023-01-28T15:16:28.636Z,28.25
2023-01-28T15:21:37.663Z,28.28
2023-01-28T15:26:46.586Z,28.46
2023-01-28T15:31:55.713Z,26.14
2023-01-28T15:37:05.185Z,25.52
2023-01-28T15:42:13.931Z,26.51
2023-01-28T15:47:23.584Z,26.94
2023-01-28T15:52:32.309Z,26.23
2023-01-28T15:57:41.504Z,24.37
2023-01-28T16:02:50.327Z,27.26
2023-01-28T16:07:59.430Z,26.31
2023-01-28T16:13:07.903Z,28.07
2023-01-28T16:18:17.300Z,26.49
2023-01-28T16:23:26.104Z,26.61
2023-01-28T16:28:35.061Z,27.57
2023-01-28T16:33:43.581Z,26.83
2023-01-28T16:38:52.692Z,26.35
2023-01-28T16:44:01.292Z,27.63
2023-01-28T16:49:10.309Z,26.22
2023-01-28T16:54:19.326Z,26.79
2023-01-28T16:59:28.962Z,28.24
2023-01-28T17:04:37.273Z,27.95
2023-01-28T17:09:46.423Z,26.76
2023-01-28T17:14:54.896Z,25.48
2023-01-28T17:20:04.363Z,26.22
2023-01-28T17:25:13.054Z,25.69
2023-01-28T17:30:22.460Z,25.49
2023-01-28T17:35:31.277Z,28.68
2023-01-28T17:40:39.954Z,29.28
2023-01-28T17:45:49.017Z,26.60
2023-01-28T17:50:58.105Z,24.75
2023-01-28T17:56:07.670Z,26.94
2023-01-28T18:01:17.091Z,24.93
2023-01-28T18:06:25.796Z,23.99
2023-01-28T18:11:35.314Z,26.96
2023-01-28T18:16:44.099Z,25.95
2023-01-28T18:21:53.683Z,27.01
2023-01-28T18:27:01.708Z,27.79
2023-01-28T18:32:11.421Z,27.92
2023-01-28T18:37:20.437Z,26.98
2023-01-28T18:42:29.524Z,33.59
2023-01-28T18:47:39.081Z,31.02
2023-01-28T18:52:48.142Z,31.12
2023-01-28T18:57:56.924Z,30.80
2023-01-28T19:03:05.654Z,27.85
2023-01-28T19:08:14.700Z,27.62
2023-01-28T19:13:24.340Z,28.62
2023-01-28T19:18:33.120Z,30.56
2023-01-28T19:23:49.912Z,34.57
2023-01-28T19:28:50.224Z,30.87
2023-01-28T19:33:59.434Z,34.73
2023-01-28T19:39:08.716Z,34.16
2023-01-28T19:44:18.091Z,34.26
2023-01-28T19:49:27.405Z,37.37
2023-01-28T19:54:37.371Z,35.22
2023-01-28T19:59:46.933Z,35.59
2023-01-28T20:05:00.878Z,34.12
2023-01-28T20:10:04.841Z,29.84
2023-01-28T20:15:14.305Z,29.42
2023-01-28T20:20:21.917Z,29.58
2023-01-28T20:25:30.756Z,30.08
2023-01-28T20:30:39.689Z,27.59
2023-01-28T20:35:49.438Z,29.13
2023-01-28T20:40:58.754Z,27.98
2023-01-28T20:46:07.998Z,27.06
2023-01-28T20:51:16.701Z,29.39
2023-01-28T20:56:26.066Z,27.21
2023-01-28T21:01:35.328Z,28.95
2023-01-28T21:06:44.243Z,27.09
2023-01-28T21:11:53.792Z,26.83
2023-01-28T21:17:03.188Z,28.23
2023-01-28T21:22:12.056Z,28.10
2023-01-28T21:27:21.664Z,28.11
2023-01-28T21:32:30.709Z,27.82
2023-01-28T21:37:39.869Z,28.65
2023-01-28T21:42:48.508Z,27.13
2023-01-28T21:47:57.669Z,25.76
2023-01-28T21:53:06.522Z,25.78
2023-01-28T21:58:15.838Z,25.33
2023-01-28T22:03:24.601Z,26.68
2023-01-28T22:08:33.974Z,24.70
2023-01-28T22:13:43.538Z,25.46
2023-01-28T22:18:53.238Z,25.16
2023-01-28T22:24:01.828Z,24.33
2023-01-28T22:29:10.941Z,24.68
2023-01-28T22:34:19.403Z,23.99
2023-01-28T22:39:28.584Z,25.15
2023-01-28T22:44:37.474Z,23.85
2023-01-28T22:49:47.185Z,24.44
2023-01-28T22:54:56.905Z,21.48
2023-01-28T23:00:06.062Z,22.60
2023-01-28T23:05:14.729Z,22.90
2023-01-28T23:10:23.865Z,23.53
2023-01-28T23:15:33.171Z,21.05
2023-01-28T23:20:42.235Z,21.07
2023-01-28T23:25:51.170Z,23.81
2023-01-28T23:31:00.171Z,22.02
2023-01-28T23:36:08.533Z,23.56
2023-01-28T23:41:17.373Z,21.11
2023-01-28T23:46:38.576Z,20.31
2023-01-28T23:51:34.198Z,21.88
2023-01-28T23:56:43.217Z,19.47
